Time,TemperatureF,DewpointF,PressureIn,WindDirection,WindDirectionDegrees,WindSpeedMPH,WindSpeedGustMPH,Humidity,HourlyPrecipIn,Conditions,Clouds,dailyrainin,SoftwareType,DateUTC
2013-06-19 00:01:00,83.0,75.0,30.02,SSW,193,3.0,4.0,78,0.00,,,0.00,,2013-06-19 04:01:00,
2013-06-19 00:11:00,83.0,75.0,30.03,ESE,113,2.0,0.0,78,0.00,,,0.00,,2013-06-19 04:11:00,
2013-06-19 00:22:00,83.0,76.0,30.03,SW,233,3.0,3.0,79,0.00,,,0.00,,2013-06-19 04:22:00,
2013-06-19 00:32:00,83.0,76.0,30.03,SW,233,3.0,3.0,79,0.00,,,0.00,,2013-06-19 04:32:00,
2013-06-19 00:42:00,83.0,76.0,30.03,SSW,198,1.0,2.0,79,0.00,,,0.00,,2013-06-19 04:42:00,
2013-06-19 00:53:00,82.0,75.0,30.02,SSW,205,2.0,3.0,79,0.00,,,0.00,,2013-06-19 04:53:00,
2013-06-19 01:01:00,82.0,75.0,30.02,SSW,205,2.0,3.0,79,0.00,,,0.00,,2013-06-19 05:01:00,
2013-06-19 01:11:00,82.0,74.0,30.02,SSE,167,0.0,3.0,78,0.00,,,0.00,,2013-06-19 05:11:00,
2013-06-19 01:23:00,82.0,74.0,30.00,SE,136,1.0,0.0,78,0.00,,,0.00,,2013-06-19 05:23:00,
2013-06-19 01:32:00,82.0,75.0,30.00,South,184,2.0,2.0,79,0.00,,,0.00,,2013-06-19 05:32:00,
2013-06-19 01:43:00,82.0,75.0,29.99,SW,221,5.0,5.0,79,0.00,,,0.00,,2013-06-19 05:43:00,
2013-06-19 01:52:00,82.0,75.0,29.99,SSW,211,2.0,2.0,80,0.00,,,0.00,,2013-06-19 05:52:00,
2013-06-19 02:02:00,82.0,75.0,30.00,South,174,1.0,0.0,80,0.00,,,0.00,,2013-06-19 06:02:00,
2013-06-19 02:11:00,82.0,75.0,30.00,ESE,105,0.0,0.0,80,0.00,,,0.00,,2013-06-19 06:11:00,
2013-06-19 02:22:00,81.0,74.0,30.00,ESE,105,0.0,0.0,80,0.00,,,0.00,,2013-06-19 06:22:00,
2013-06-19 02:34:00,81.0,75.0,30.00,ESE,105,0.0,0.0,81,0.00,,,0.00,,2013-06-19 06:34:00,
2013-06-19 02:42:00,81.0,75.0,30.00,ESE,105,0.0,0.0,82,0.00,,,0.00,,2013-06-19 06:42:00,
2013-06-19 02:52:00,81.0,75.0,30.00,ESE,105,0.0,0.0,82,0.00,,,0.00,,2013-06-19 06:52:00,
2013-06-19 03:01:00,81.0,75.0,30.00,ESE,105,0.0,0.0,83,0.00,,,0.00,,2013-06-19 07:01:00,
2013-06-19 03:11:00,81.0,75.0,30.00,SW,226,0.0,0.0,83,0.00,,,0.00,,2013-06-19 07:11:00,
2013-06-19 03:22:00,81.0,75.0,30.00,SW,226,0.0,0.0,83,0.00,,,0.00,,2013-06-19 07:22:00,
2013-06-19 03:33:00,81.0,75.0,30.00,SW,226,0.0,0.0,83,0.00,,,0.00,,2013-06-19 07:33:00,
2013-06-19 03:43:00,81.0,75.0,30.01,SW,226,0.0,0.0,83,0.00,,,0.00,,2013-06-19 07:43:00,
2013-06-19 03:53:00,81.0,76.0,30.01,SW,226,0.0,0.0,85,0.00,,,0.00,,2013-06-19 07:53:00,
2013-06-19 04:02:00,81.0,75.0,30.01,SW,226,0.0,0.0,83,0.00,,,0.00,,2013-06-19 08:02:00,
2013-06-19 04:11:00,81.0,75.0,30.01,SW,226,0.0,0.0,83,0.00,,,0.00,,2013-06-19 08:11:00,
2013-06-19 04:22:00,80.0,75.0,30.00,SW,226,0.0,0.0,84,0.00,,,0.00,,2013-06-19 08:22:00,
2013-06-19 04:33:00,80.0,75.0,30.01,SW,226,0.0,0.0,85,0.00,,,0.00,,2013-06-19 08:33:00,
2013-06-19 04:43:00,80.0,75.0,30.00,SW,226,0.0,0.0,86,0.00,,,0.00,,2013-06-19 08:43:00,
2013-06-19 04:53:00,80.0,75.0,30.00,SW,226,0.0,0.0,86,0.00,,,0.00,,2013-06-19 08:53:00,
2013-06-19 05:02:00,80.0,75.0,30.00,SW,226,0.0,0.0,86,0.00,,,0.00,,2013-06-19 09:02:00,
2013-06-19 05:11:00,80.0,76.0,29.99,SW,226,0.0,0.0,87,0.00,,,0.00,,2013-06-19 09:11:00,
2013-06-19 05:22:00,79.0,75.0,29.99,SW,226,0.0,0.0,87,0.00,,,0.00,,2013-06-19 09:22:00,
2013-06-19 05:34:00,80.0,76.0,29.99,SW,226,0.0,0.0,88,0.00,,,0.00,,2013-06-19 09:34:00,
2013-06-19 05:43:00,79.0,75.0,29.98,SW,226,0.0,0.0,88,0.00,,,0.00,,2013-06-19 09:43:00,
2013-06-19 05:53:00,80.0,76.0,29.98,SW,226,0.0,0.0,88,0.00,,,0.00,,2013-06-19 09:53:00,
2013-06-19 06:02:00,80.0,76.0,29.98,SW,226,0.0,0.0,87,0.00,,,0.00,,2013-06-19 10:02:00,
2013-06-19 06:12:00,79.0,75.0,29.98,SW,226,0.0,0.0,87,0.00,,,0.00,,2013-06-19 10:12:00,
2013-06-19 06:22:00,79.0,75.0,29.98,SW,226,0.0,0.0,88,0.00,,,0.00,,2013-06-19 10:22:00,
2013-06-19 06:33:00,79.0,75.0,29.99,SW,226,0.0,0.0,88,0.00,,,0.00,,2013-06-19 10:33:00,
2013-06-19 06:42:00,79.0,75.0,29.99,SW,226,0.0,0.0,89,0.00,,,0.00,,2013-06-19 10:42:00,
2013-06-19 06:52:00,79.0,75.0,30.00,SW,226,0.0,0.0,89,0.00,,,0.00,,2013-06-19 10:52:00,
2013-06-19 07:02:00,79.0,75.0,30.00,SW,226,0.0,0.0,89,0.00,,,0.00,,2013-06-19 11:02:00,
2013-06-19 07:11:00,79.0,75.0,30.01,SW,226,0.0,0.0,89,0.00,,,0.00,,2013-06-19 11:11:00,
2013-06-19 07:22:00,79.0,75.0,30.01,SW,226,0.0,0.0,89,0.00,,,0.00,,2013-06-19 11:22:00,
2013-06-19 07:33:00,79.0,75.0,30.01,SW,226,0.0,0.0,89,0.00,,,0.00,,2013-06-19 11:33:00,
2013-06-19 07:42:00,79.0,76.0,30.02,SW,226,0.0,0.0,90,0.00,,,0.00,,2013-06-19 11:42:00,
2013-06-19 07:54:00,79.0,75.0,30.02,NNE,15,2.0,2.0,89,0.00,,,0.00,,2013-06-19 11:54:00,
2013-06-19 08:02:00,80.0,76.0,30.02,NNW,345,0.0,0.0,88,0.00,,,0.00,,2013-06-19 12:02:00,
2013-06-19 08:12:00,80.0,76.0,30.02,NNW,345,0.0,0.0,88,0.00,,,0.00,,2013-06-19 12:12:00,
2013-06-19 08:22:00,80.0,76.0,30.02,North,8,3.0,3.0,87,0.00,,,0.00,,2013-06-19 12:22:00,
2013-06-19 08:34:00,81.0,76.0,30.02,SW,228,4.0,4.0,86,0.00,,,0.00,,2013-06-19 12:34:00,
2013-06-19 08:44:00,82.0,77.0,30.02,South,177,0.0,0.0,84,0.00,,,0.00,,2013-06-19 12:44:00,
2013-06-19 08:53:00,82.0,75.0,30.03,South,191,1.0,2.0,80,0.00,,,0.00,,2013-06-19 12:53:00,
2013-06-19 09:02:00,83.0,74.0,30.02,South,191,7.0,11.0,74,0.00,,,0.00,,2013-06-19 13:02:00,
2013-06-19 09:12:00,83.0,74.0,30.02,SW,225,3.0,3.0,74,0.00,,,0.00,,2013-06-19 13:12:00,
2013-06-19 09:22:00,83.0,74.0,30.02,SW,226,4.0,5.0,74,0.00,,,0.00,,2013-06-19 13:22:00,
2013-06-19 09:33:00,83.0,75.0,30.02,SSW,193,4.0,4.0,76,0.00,,,0.00,,2013-06-19 13:33:00,
2013-06-19 09:42:00,84.0,75.0,30.03,SW,218,7.0,8.0,74,0.00,,,0.00,,2013-06-19 13:42:00,
2013-06-19 09:53:00,84.0,74.0,30.03,SE,127,6.0,6.0,73,0.00,,,0.00,,2013-06-19 13:53:00,
2013-06-19 10:02:00,84.0,74.0,30.03,SE,127,6.0,6.0,73,0.00,,,0.00,,2013-06-19 14:02:00,
2013-06-19 10:12:00,86.0,75.0,30.02,South,172,3.0,3.0,71,0.00,,,0.00,,2013-06-19 14:12:00,
2013-06-19 10:22:00,86.0,74.0,30.02,SW,221,4.0,6.0,67,0.00,,,0.00,,2013-06-19 14:22:00,
2013-06-19 10:33:00,86.0,73.0,30.02,SSE,149,7.0,8.0,66,0.00,,,0.00,,2013-06-19 14:33:00,
2013-06-19 10:44:00,87.0,73.0,30.02,ESE,113,4.0,4.0,64,0.00,,,0.00,,2013-06-19 14:44:00,
2013-06-19 10:52:00,87.0,73.0,30.02,ESE,113,4.0,4.0,64,0.00,,,0.00,,2013-06-19 14:52:00,
2013-06-19 11:02:00,87.0,73.0,30.02,ESE,110,5.0,5.0,64,0.00,,,0.00,,2013-06-19 15:02:00,
2013-06-19 11:11:00,87.0,73.0,30.02,ESE,110,5.0,5.0,64,0.00,,,0.00,,2013-06-19 15:11:00,
2013-06-19 11:22:00,87.0,73.0,30.02,ESE,110,5.0,5.0,64,0.00,,,0.00,,2013-06-19 15:22:00,
2013-06-19 11:33:00,87.0,73.0,30.02,ESE,110,5.0,5.0,64,0.00,,,0.00,,2013-06-19 15:33:00,
2013-06-19 11:42:00,87.0,74.0,30.02,SSW,198,7.0,14.0,65,0.00,,,0.00,,2013-06-19 15:42:00,
2013-06-19 11:53:00,87.0,73.0,30.02,SSE,167,3.0,5.0,64,0.00,,,0.00,,2013-06-19 15:53:00,
2013-06-19 12:01:00,88.0,74.0,30.02,SSW,210,5.0,6.0,63,0.00,,,0.00,,2013-06-19 16:01:00,
2013-06-19 12:11:00,87.0,72.0,30.02,SE,141,7.0,7.0,62,0.00,,,0.00,,2013-06-19 16:11:00,
2013-06-19 12:22:00,88.0,74.0,30.01,SE,129,6.0,7.0,64,0.00,,,0.00,,2013-06-19 16:22:00,
2013-06-19 12:34:00,89.0,74.0,30.02,ESE,117,5.0,6.0,62,0.00,,,0.00,,2013-06-19 16:34:00,
2013-06-19 12:43:00,89.0,73.0,30.02,South,169,4.0,8.0,59,0.00,,,0.00,,2013-06-19 16:43:00,
2013-06-19 12:52:00,89.0,73.0,30.01,SE,124,3.0,5.0,59,0.00,,,0.00,,2013-06-19 16:52:00,
2013-06-19 13:02:00,89.0,73.0,30.01,SE,124,3.0,5.0,59,0.00,,,0.00,,2013-06-19 17:02:00,
2013-06-19 13:12:00,89.0,74.0,30.01,SE,131,3.0,3.0,61,0.00,,,0.00,,2013-06-19 17:12:00,
2013-06-19 13:22:00,89.0,74.0,30.00,ESE,115,9.0,10.0,61,0.00,,,0.00,,2013-06-19 17:22:00,
2013-06-19 13:34:00,88.0,74.0,30.00,South,191,6.0,6.0,63,0.00,,,0.00,,2013-06-19 17:34:00,
2013-06-19 13:43:00,89.0,74.0,30.00,SSE,153,7.0,7.0,62,0.00,,,0.00,,2013-06-19 17:43:00,
2013-06-19 13:53:00,89.0,73.0,30.01,South,190,5.0,10.0,60,0.00,,,0.00,,2013-06-19 17:53:00,
2013-06-19 14:02:00,88.0,71.0,30.00,ESE,118,7.0,11.0,58,0.00,,,0.00,,2013-06-19 18:02:00,
2013-06-19 14:11:00,90.0,71.0,30.00,South,190,5.0,5.0,54,0.00,,,0.00,,2013-06-19 18:11:00,
2013-06-19 14:24:00,89.0,72.0,30.00,SSE,148,7.0,7.0,57,0.00,,,0.00,,2013-06-19 18:24:00,
2013-06-19 14:33:00,89.0,70.0,29.99,South,183,7.0,7.0,53,0.00,,,0.00,,2013-06-19 18:33:00,
2013-06-19 14:44:00,89.0,71.0,29.99,SE,136,7.0,7.0,55,0.00,,,0.00,,2013-06-19 18:44:00,
2013-06-19 14:53:00,89.0,71.0,29.98,ESE,120,7.0,11.0,55,0.00,,,0.00,,2013-06-19 18:53:00,
2013-06-19 15:01:00,89.0,72.0,29.98,SE,143,8.0,8.0,57,0.00,,,0.00,,2013-06-19 19:01:00,
2013-06-19 15:12:00,88.0,73.0,29.99,ESE,115,9.0,12.0,61,0.00,,,0.00,,2013-06-19 19:12:00,
2013-06-19 15:22:00,88.0,72.0,29.99,SW,214,5.0,9.0,60,0.00,,,0.00,,2013-06-19 19:22:00,
2013-06-19 15:32:00,87.0,73.0,29.99,SSE,156,8.0,8.0,63,0.00,,,0.00,,2013-06-19 19:32:00,
2013-06-19 15:43:00,89.0,72.0,29.98,ESE,114,7.0,7.0,58,0.00,,,0.00,,2013-06-19 19:43:00,
2013-06-19 15:52:00,88.0,70.0,29.98,ESE,105,6.0,7.0,56,0.00,,,0.00,,2013-06-19 19:52:00,
2013-06-19 16:02:00,88.0,70.0,29.98,ESE,105,6.0,7.0,56,0.00,,,0.00,,2013-06-19 20:02:00,
2013-06-19 16:11:00,88.0,73.0,29.98,ESE,118,7.0,7.0,62,0.00,,,0.00,,2013-06-19 20:11:00,
2013-06-19 16:22:00,88.0,73.0,29.98,SE,132,8.0,8.0,61,0.00,,,0.00,,2013-06-19 20:22:00,
2013-06-19 16:33:00,88.0,74.0,29.98,SSW,208,8.0,8.0,63,0.00,,,0.00,,2013-06-19 20:33:00,
2013-06-19 16:42:00,87.0,73.0,29.98,SSE,167,9.0,9.0,63,0.00,,,0.00,,2013-06-19 20:42:00,
2013-06-19 16:52:00,88.0,73.0,29.98,SE,141,6.0,6.0,62,0.00,,,0.00,,2013-06-19 20:52:00,
2013-06-19 17:02:00,88.0,74.0,29.98,ESE,118,6.0,6.0,63,0.00,,,0.00,,2013-06-19 21:02:00,
2013-06-19 17:11:00,87.0,73.0,29.98,South,172,5.0,5.0,64,0.00,,,0.00,,2013-06-19 21:11:00,
2013-06-19 17:22:00,86.0,73.0,29.97,SE,127,7.0,12.0,66,0.00,,,0.00,,2013-06-19 21:22:00,
2013-06-19 17:33:00,86.0,75.0,29.98,SSE,166,6.0,8.0,69,0.00,,,0.00,,2013-06-19 21:33:00,
2013-06-19 17:44:00,85.0,74.0,29.97,SSE,167,8.0,8.0,69,0.00,,,0.00,,2013-06-19 21:44:00,
2013-06-19 17:52:00,85.0,74.0,29.97,SSE,167,8.0,8.0,69,0.00,,,0.00,,2013-06-19 21:52:00,
2013-06-19 18:02:00,85.0,74.0,29.98,SSW,212,2.0,7.0,69,0.00,,,0.00,,2013-06-19 22:02:00,
2013-06-19 18:11:00,85.0,74.0,29.98,South,191,5.0,5.0,70,0.00,,,0.00,,2013-06-19 22:11:00,
2013-06-19 18:22:00,85.0,74.0,29.99,ESE,120,5.0,5.0,69,0.00,,,0.00,,2013-06-19 22:22:00,
2013-06-19 18:34:00,85.0,74.0,29.99,SW,224,2.0,3.0,69,0.00,,,0.00,,2013-06-19 22:34:00,
2013-06-19 18:43:00,85.0,74.0,29.99,SE,139,2.0,4.0,70,0.00,,,0.00,,2013-06-19 22:43:00,
2013-06-19 18:53:00,84.0,74.0,30.00,East,82,7.0,7.0,71,0.00,,,0.00,,2013-06-19 22:53:00,
2013-06-19 19:02:00,84.0,74.0,30.00,South,186,3.0,5.0,71,0.00,,,0.00,,2013-06-19 23:02:00,
2013-06-19 19:12:00,85.0,75.0,30.00,SSE,150,4.0,4.0,71,0.00,,,0.00,,2013-06-19 23:12:00,
2013-06-19 19:23:00,85.0,75.0,30.00,SSE,163,3.0,3.0,71,0.00,,,0.00,,2013-06-19 23:23:00,
2013-06-19 19:33:00,85.0,74.0,30.00,SE,146,4.0,4.0,70,0.00,,,0.00,,2013-06-19 23:33:00,
2013-06-19 19:43:00,84.0,73.0,29.99,SSE,163,4.0,4.0,70,0.00,,,0.00,,2013-06-19 23:43:00,
2013-06-19 19:52:00,84.0,74.0,29.99,WSW,256,4.0,4.0,71,0.00,,,0.00,,2013-06-19 23:52:00,
2013-06-19 20:01:00,84.0,74.0,29.99,SSW,207,4.0,7.0,72,0.00,,,0.00,,2013-06-20 00:01:00,
2013-06-19 20:12:00,84.0,74.0,29.99,SSE,165,6.0,8.0,72,0.00,,,0.00,,2013-06-20 00:12:00,
2013-06-19 20:22:00,84.0,74.0,29.99,ESE,110,2.0,2.0,73,0.00,,,0.00,,2013-06-20 00:22:00,
2013-06-19 20:33:00,84.0,74.0,29.99,ESE,110,3.0,4.0,73,0.00,,,0.00,,2013-06-20 00:33:00,
2013-06-19 20:44:00,84.0,74.0,30.00,SE,134,3.0,3.0,72,0.00,,,0.00,,2013-06-20 00:44:00,
2013-06-19 20:52:00,84.0,74.0,30.00,ESE,110,2.0,4.0,73,0.00,,,0.00,,2013-06-20 00:52:00,
2013-06-19 21:02:00,84.0,75.0,30.00,ESE,104,4.0,4.0,74,0.00,,,0.00,,2013-06-20 01:02:00,
2013-06-19 21:11:00,83.0,74.0,30.01,East,100,1.0,0.0,74,0.00,,,0.00,,2013-06-20 01:11:00,
2013-06-19 21:22:00,83.0,74.0,30.01,ESE,111,2.0,6.0,75,0.00,,,0.00,,2013-06-20 01:22:00,
2013-06-19 21:33:00,84.0,75.0,30.01,SSE,166,2.0,3.0,74,0.00,,,0.00,,2013-06-20 01:33:00,
2013-06-19 21:44:00,83.0,74.0,30.02,East,90,2.0,3.0,75,0.00,,,0.00,,2013-06-20 01:44:00,
2013-06-19 21:52:00,84.0,75.0,30.02,ENE,63,2.0,0.0,75,0.00,,,0.00,,2013-06-20 01:52:00,
2013-06-19 22:02:00,83.0,74.0,30.02,ESE,120,1.0,3.0,75,0.00,,,0.00,,2013-06-20 02:02:00,
2013-06-19 22:11:00,83.0,75.0,30.02,SE,146,3.0,3.0,76,0.00,,,0.00,,2013-06-20 02:11:00,
2013-06-19 22:24:00,83.0,74.0,30.02,SE,143,3.0,3.0,74,0.00,,,0.00,,2013-06-20 02:24:00,
2013-06-19 22:34:00,83.0,75.0,30.02,South,180,3.0,3.0,76,0.00,,,0.00,,2013-06-20 02:34:00,
2013-06-19 22:43:00,83.0,75.0,30.02,South,169,3.0,3.0,76,0.00,,,0.00,,2013-06-20 02:43:00,
2013-06-19 22:52:00,83.0,75.0,30.02,South,169,3.0,5.0,76,0.00,,,0.00,,2013-06-20 02:52:00,
2013-06-19 23:02:00,83.0,75.0,30.02,SE,141,2.0,2.0,76,0.00,,,0.00,,2013-06-20 03:02:00,
2013-06-19 23:11:00,83.0,74.0,30.02,SSE,159,4.0,4.0,75,0.00,,,0.00,,2013-06-20 03:11:00,
2013-06-19 23:22:00,83.0,74.0,30.02,ESE,111,1.0,0.0,75,0.00,,,0.00,,2013-06-20 03:22:00,
2013-06-19 23:33:00,83.0,74.0,30.02,ESE,111,0.0,0.0,75,0.00,,,0.00,,2013-06-20 03:33:00,
2013-06-19 23:43:00,83.0,74.0,30.02,ESE,113,2.0,5.0,75,0.00,,,0.00,,2013-06-20 03:43:00,
2013-06-19 23:53:00,84.0,74.0,30.02,ESE,110,2.0,2.0,73,0.00,,,0.00,,2013-06-20 03:53:00,